Time;durP1;ratioP1;P1;durP2;ratioP2;P2;SDS_P1;SDS_P2;PMS_P1;PMS_P2;Temp;Humidity;BMP_temperature;BMP_pressure;BME280_temperature;BME280_humidity;BME280_pressure;Samples;Min_cycle;Max_cycle;Signal;HPM_P1;HPM_P2
2023/02/13 00:01:26;;;;;;;75.13;39.50;;;;;;;2.94;61.79;101357.53;5089294;28;20092;-73
2023/02/13 00:03:51;;;;;;;64.75;36.75;;;;;;;3.30;60.88;101362.25;5079156;28;20027;-74
2023/02/13 00:06:17;;;;;;;70.47;36.40;;;;;;;3.48;60.64;101367.66;5071362;28;20028;-74
2023/02/13 00:08:42;;;;;;;65.28;37.47;;;;;;;3.27;61.52;101379.34;5086117;28;20019;-73
2023/02/13 00:11:07;;;;;;;71.05;36.80;;;;;;;3.20;60.85;101371.97;5089175;28;20016;-74
2023/02/13 00:13:34;;;;;;;66.63;39.33;;;;;;;3.00;62.13;101368.69;5085247;28;20024;-74
2023/02/13 00:16:01;;;;;;;84.10;41.92;;;;;;;2.86;63.03;101360.63;5088511;28;20502;-73
2023/02/13 00:18:28;;;;;;;88.03;46.38;;;;;;;2.79;62.76;101363.50;5089933;28;20137;-73
2023/02/13 00:21:02;;;;;;;113.30;60.45;;;;;;;2.71;63.17;101371.28;5088574;28;20073;-74
2023/02/13 00:23:30;;;;;;;138.10;67.63;;;;;;;2.21;64.97;101365.78;5091157;28;20032;-73
2023/02/13 00:25:55;;;;;;;121.50;57.33;;;;;;;1.86;66.67;101373.88;5089811;28;20024;-74
2023/02/13 00:28:21;;;;;;;95.47;47.97;;;;;;;1.87;67.26;101370.03;5089187;28;20012;-74
2023/02/13 00:30:46;;;;;;;92.65;50.40;;;;;;;1.65;67.93;101367.72;5089868;28;20036;-74
2023/02/13 00:33:12;;;;;;;125.43;57.35;;;;;;;1.92;67.23;101370.19;5089697;28;20020;-74
2023/02/13 00:35:37;;;;;;;115.25;55.55;;;;;;;1.99;67.00;101373.72;5091129;28;20063;-74
2023/02/13 00:38:03;;;;;;;113.25;53.60;;;;;;;2.08;66.86;101372.34;5091229;28;20019;-74
2023/02/13 00:40:28;;;;;;;95.40;48.35;;;;;;;2.12;66.47;101378.25;5091053;28;20054;-74
2023/02/13 00:42:54;;;;;;;92.90;47.53;;;;;;;1.99;66.58;101370.97;5090050;28;20043;-74
2023/02/13 00:45:19;;;;;;;80.85;44.22;;;;;;;1.67;67.54;101377.47;5089157;28;20530;-73
2023/02/13 00:47:44;;;;;;;82.82;44.20;;;;;;;1.86;67.22;101382.16;5089187;28;20405;-74
2023/02/13 00:50:10;;;;;;;87.75;45.30;;;;;;;1.80;67.00;101386.69;5087011;28;20044;-74
2023/02/13 00:52:35;;;;;;;80.65;42.63;;;;;;;1.43;67.98;101386.63;5090026;28;20024;-74
2023/02/13 00:55:01;;;;;;;81.65;43.08;;;;;;;1.57;67.88;101381.81;5088702;28;20129;-74
2023/02/13 00:57:26;;;;;;;85.93;44.53;;;;;;;1.40;67.71;101382.41;5085492;28;20035;-73
2023/02/13 00:59:52;;;;;;;80.20;41.75;;;;;;;1.13;68.95;101388.16;5088235;28;20016;-74
2023/02/13 01:02:17;;;;;;;85.20;43.90;;;;;;;0.94;69.38;101390.84;5088102;28;20491;-74
2023/02/13 01:04:43;;;;;;;88.38;43.20;;;;;;;1.15;68.49;101394.28;5089957;28;20375;-73
2023/02/13 01:07:08;;;;;;;77.47;40.70;;;;;;;1.14;68.24;101398.13;5089616;28;20031;-73
2023/02/13 01:09:34;;;;;;;79.00;41.63;;;;;;;1.10;68.50;101400.47;5089199;28;20077;-74
2023/02/13 01:11:59;;;;;;;84.93;41.35;;;;;;;0.92;69.02;101397.66;5089672;28;20085;-73
2023/02/13 01:14:25;;;;;;;83.88;42.33;;;;;;;0.90;68.73;101386.00;5089315;28;20387;-73
2023/02/13 01:16:50;;;;;;;75.40;39.58;;;;;;;0.87;69.14;101395.56;5089210;28;20028;-73
2023/02/13 01:19:15;;;;;;;66.93;36.80;;;;;;;1.21;67.89;101395.31;5102341;28;20178;-73
2023/02/13 01:21:42;;;;;;;82.20;39.33;;;;;;;1.04;68.55;101395.03;5089914;28;20028;-73
2023/02/13 01:24:08;;;;;;;76.93;38.92;;;;;;;0.81;69.04;101399.19;5088606;28;20028;-74
2023/02/13 01:26:33;;;;;;;72.70;37.70;;;;;;;0.63;69.01;101391.69;5072202;28;20473;-74
2023/02/13 01:28:59;;;;;;;69.05;37.78;;;;;;;0.41;70.17;101392.88;5092823;28;20024;-74
2023/02/13 01:31:24;;;;;;;68.30;36.80;;;;;;;0.19;70.70;101397.00;5089972;28;20081;-72
2023/02/13 01:33:51;;;;;;;65.95;35.90;;;;;;;0.26;70.24;101392.31;5093404;28;20036;-74
2023/02/13 01:36:16;;;;;;;66.78;35.72;;;;;;;0.29;69.65;101400.13;5093116;28;20032;-74
2023/02/13 01:38:42;;;;;;;70.18;35.53;;;;;;;0.45;69.83;101412.56;5092146;28;20039;-74
2023/02/13 01:41:09;;;;;;;63.17;32.65;;;;;;;0.53;69.59;101406.78;5092045;28;20050;-74
2023/02/13 01:43:46;;;;;;;65.13;33.15;;;;;;;0.35;69.86;101406.69;5092349;28;20036;-74
2023/02/13 01:46:17;;;;;;;62.83;32.22;;;;;;;0.50;69.91;101414.66;5093270;28;20039;-74
2023/02/13 01:48:43;;;;;;;64.95;33.22;;;;;;;0.60;69.12;101420.50;5092462;28;20097;-74
2023/02/13 01:51:14;;;;;;;67.10;35.90;;;;;;;0.29;69.95;101416.66;5090289;28;20036;-74
2023/02/13 01:53:52;;;;;;;69.70;35.45;;;;;;;0.22;70.53;101415.81;5091606;28;20513;-74
2023/02/13 01:56:27;;;;;;;65.28;36.28;;;;;;;-0.35;72.34;101419.19;5087868;28;20032;-73
2023/02/13 01:58:57;;;;;;;65.45;33.65;;;;;;;-0.31;72.52;101409.44;5090427;28;20092;-73
2023/02/13 02:01:24;;;;;;;60.20;33.53;;;;;;;-0.28;72.51;101417.25;5093049;28;20055;-74
2023/02/13 02:04:07;;;;;;;63.10;32.17;;;;;;;-0.36;72.87;101411.97;5091472;28;20028;-73
2023/02/13 02:06:37;;;;;;;64.75;31.80;;;;;;;-0.37;73.44;101413.03;5090894;28;20573;-73
2023/02/13 02:09:08;;;;;;;54.33;27.67;;;;;;;-0.12;72.49;101415.09;5092842;28;20032;-73
2023/02/13 02:11:41;;;;;;;63.03;30.85;;;;;;;0.00;72.22;101413.38;5091847;28;20059;-74
2023/02/13 02:14:06;;;;;;;60.40;29.65;;;;;;;-0.05;72.07;101404.91;5089946;28;20516;-74
2023/02/13 02:16:32;;;;;;;58.13;29.20;;;;;;;-0.02;72.15;101421.00;5091671;28;20080;-74
2023/02/13 02:19:00;;;;;;;58.20;29.85;;;;;;;-0.18;72.39;101416.78;5093279;28;20081;-74
2023/02/13 02:22:01;;;;;;;57.28;29.80;;;;;;;-0.20;72.71;101421.66;5091283;28;20089;-74
2023/02/13 02:24:53;;;;;;;57.25;27.88;;;;;;;0.02;72.28;101422.25;5043337;28;20082;-73
2023/02/13 02:27:27;;;;;;;54.35;27.48;;;;;;;0.06;72.10;101434.53;5080639;28;20035;-74
2023/02/13 02:30:04;;;;;;;54.08;28.73;;;;;;;0.28;70.82;101435.06;5085547;28;20028;-74
2023/02/13 02:32:30;;;;;;;51.97;26.95;;;;;;;0.21;71.06;101431.50;5090814;28;20039;-74
2023/02/13 02:35:16;;;;;;;48.95;26.55;;;;;;;-0.05;71.58;101427.78;5092502;28;20453;-74
2023/02/13 02:37:54;;;;;;;48.72;26.95;;;;;;;0.07;71.95;101433.47;5092375;28;20027;-74
2023/02/13 02:40:31;;;;;;;56.55;30.23;;;;;;;0.08;71.66;101437.06;5089628;28;20122;-73
2023/02/13 02:43:15;;;;;;;54.95;29.70;;;;;;;0.18;71.42;101444.84;5091915;28;20161;-74
2023/02/13 02:45:53;;;;;;;66.65;33.38;;;;;;;0.34;70.99;101441.59;5090000;28;20035;-74
2023/02/13 02:51:45;;;;;;;58.97;29.83;;;;;;;0.53;70.47;101461.03;5082953;28;20042;-73
2023/02/13 02:57:17;;;;;;;48.83;26.95;;;;;;;0.72;69.10;101463.88;5089796;28;20094;-74
2023/02/13 03:13:17;;;;;;;57.83;28.60;;;;;;;1.55;65.58;101462.06;5091675;28;20034;-75
2023/02/13 03:13:48;;;;;;;55.33;29.33;;;;;;;1.71;65.27;101459.78;5090386;28;20129;-74
2023/02/13 03:22:35;;;;;;;51.78;27.35;;;;;;;1.54;64.20;101460.38;5090365;28;20038;-74
2023/02/13 03:25:17;;;;;;;58.97;29.90;;;;;;;1.04;66.07;101455.66;5089337;28;20055;-74
2023/02/13 03:30:48;;;;;;;56.13;29.45;;;;;;;1.57;64.55;101465.44;5087833;28;20039;-74
2023/02/13 03:33:25;;;;;;;59.13;29.10;;;;;;;1.58;64.54;101461.59;5078481;28;20027;-74
2023/02/13 03:38:59;;;;;;;57.13;29.88;;;;;;;0.90;65.25;101460.41;5090008;28;20143;-75
2023/02/13 03:41:32;;;;;;;63.47;32.90;;;;;;;0.89;66.49;101470.59;5091073;28;20028;-74
2023/02/13 03:44:12;;;;;;;61.63;29.33;;;;;;;1.06;66.03;101461.78;5089373;28;20020;-74
2023/02/13 03:46:42;;;;;;;60.85;31.77;;;;;;;1.13;65.82;101465.34;5090091;28;20027;-74
2023/02/13 03:52:22;;;;;;;58.20;30.55;;;;;;;0.29;68.03;101471.72;5082666;28;20113;-74
2023/02/13 04:00:30;;;;;;;62.10;31.95;;;;;;;0.43;67.74;101463.41;5089539;28;20042;-75
2023/02/13 04:03:13;;;;;;;60.95;32.60;;;;;;;0.68;67.62;101467.09;5090446;28;20174;-74
2023/02/13 04:05:45;;;;;;;61.60;31.80;;;;;;;0.73;67.07;101482.97;5087917;28;20032;-74
2023/02/13 04:08:11;;;;;;;57.05;31.02;;;;;;;0.84;66.89;101473.16;5090350;28;20065;-74
2023/02/13 04:10:46;;;;;;;90.38;50.80;;;;;;;0.86;66.94;101470.19;5090027;28;20012;-74
2023/02/13 04:13:24;;;;;;;75.22;37.40;;;;;;;1.02;66.29;101466.06;5090967;28;20032;-74
2023/02/13 04:15:56;;;;;;;60.55;33.95;;;;;;;1.05;65.59;101462.84;5089808;28;20024;-74
2023/02/13 04:18:32;;;;;;;62.72;33.58;;;;;;;1.01;65.72;101473.47;5089761;28;20535;-74
2023/02/13 04:21:06;;;;;;;61.33;32.88;;;;;;;0.61;67.13;101474.56;5088691;28;20024;-74
2023/02/13 04:23:31;;;;;;;66.05;33.22;;;;;;;0.76;66.48;101467.91;5089180;28;20036;-73
2023/02/13 04:26:01;;;;;;;69.15;35.63;;;;;;;0.90;66.06;101475.03;5089071;28;20464;-74
2023/02/13 04:28:27;;;;;;;64.90;34.45;;;;;;;0.94;65.71;101473.50;5087332;28;20026;-74
2023/02/13 04:30:52;;;;;;;62.38;33.45;;;;;;;0.96;65.60;101470.53;5088450;28;20166;-74
2023/02/13 04:33:18;;;;;;;73.22;34.88;;;;;;;0.91;66.09;101465.69;5089591;28;20410;-74
2023/02/13 04:35:43;;;;;;;63.20;33.92;;;;;;;0.94;65.33;101462.50;5088799;28;20036;-74
2023/02/13 04:38:09;;;;;;;68.22;35.33;;;;;;;0.87;65.59;101466.34;5089918;28;20027;-74
2023/02/13 04:40:34;;;;;;;71.65;34.65;;;;;;;0.84;65.22;101462.13;5089641;28;20432;-74
2023/02/13 04:43:00;;;;;;;73.72;36.83;;;;;;;0.86;65.46;101468.28;5089832;28;20383;-74
2023/02/13 04:45:25;;;;;;;81.63;36.83;;;;;;;0.86;65.32;101459.16;5080099;28;20047;-74
2023/02/13 04:47:55;;;;;;;87.18;37.95;;;;;;;0.81;65.63;101462.56;5080519;28;20024;-74
2023/02/13 04:50:21;;;;;;;81.72;40.90;;;;;;;0.62;65.61;101469.88;5086987;28;20123;-74
2023/02/13 04:52:49;;;;;;;96.43;40.55;;;;;;;0.62;66.19;101476.25;5070808;28;20173;-74
2023/02/13 04:55:14;;;;;;;96.30;41.80;;;;;;;0.70;65.92;101472.38;5085164;28;20501;-74
2023/02/13 04:57:40;;;;;;;91.82;42.40;;;;;;;0.80;65.81;101472.75;5086679;28;20024;-73
2023/02/13 05:00:06;;;;;;;92.32;39.72;;;;;;;0.87;65.41;101481.00;5089874;28;20456;-74
2023/02/13 05:02:32;;;;;;;102.53;42.60;;;;;;;0.81;65.31;101479.97;5092251;28;20028;-74
2023/02/13 05:04:57;;;;;;;96.55;43.10;;;;;;;0.77;64.99;101478.69;5092528;28;20040;-73
2023/02/13 05:07:23;;;;;;;99.50;42.20;;;;;;;0.76;65.26;101470.66;5090556;28;20364;-74
2023/02/13 05:09:48;;;;;;;92.55;42.38;;;;;;;0.62;65.19;101484.50;5094089;28;20024;-73
2023/02/13 05:12:14;;;;;;;93.60;41.40;;;;;;;0.62;65.67;101484.50;5094001;28;20036;-74
2023/02/13 05:14:39;;;;;;;100.57;42.40;;;;;;;0.50;65.83;101489.84;5092609;28;20031;-74
2023/02/13 05:17:05;;;;;;;126.97;46.40;;;;;;;0.46;66.26;101484.97;5093573;28;20032;-74
2023/02/13 05:19:30;;;;;;;84.35;42.13;;;;;;;-1.01;68.78;101490.41;5090947;28;20024;-73
2023/02/13 05:24:40;;;;;;;103.97;51.42;;;;;;;-0.21;68.31;101491.50;5093777;28;20192;-74
2023/02/13 05:27:05;;;;;;;107.78;54.10;;;;;;;-0.04;68.23;101498.28;5093227;28;20485;-74
2023/02/13 05:29:30;;;;;;;116.47;56.05;;;;;;;-0.02;67.50;101487.03;5093327;28;20024;-74
2023/02/13 05:31:58;;;;;;;135.50;61.08;;;;;;;0.01;68.23;101486.63;5089225;28;20024;-73
2023/02/13 05:34:25;;;;;;;161.40;73.93;;;;;;;0.12;67.58;101507.13;5092753;28;20028;-74
2023/02/13 05:36:52;;;;;;;203.15;80.10;;;;;;;0.16;67.69;101502.88;5092394;28;20196;-73
2023/02/13 05:39:17;;;;;;;171.90;71.45;;;;;;;0.17;67.84;101517.50;5091911;28;20016;-73
2023/02/13 05:41:44;;;;;;;191.10;78.75;;;;;;;0.12;67.63;101523.63;5090654;28;20036;-73
2023/02/13 05:44:10;;;;;;;170.80;79.55;;;;;;;0.30;67.43;101517.44;5089578;28;20101;-73
2023/02/13 05:46:38;;;;;;;178.15;79.50;;;;;;;0.36;66.54;101522.09;5092878;28;20036;-73
2023/02/13 05:49:04;;;;;;;170.73;79.55;;;;;;;0.19;66.97;101521.72;5087860;28;20404;-73
2023/02/13 05:51:29;;;;;;;174.15;79.13;;;;;;;0.27;67.03;101524.22;5092790;28;20032;-73
2023/02/13 05:53:55;;;;;;;172.55;81.97;;;;;;;0.32;66.92;101531.00;5091129;28;20032;-73
2023/02/13 05:56:20;;;;;;;157.38;74.72;;;;;;;0.37;67.08;101531.19;5091008;28;20039;-73
2023/02/13 05:58:46;;;;;;;166.80;71.15;;;;;;;0.49;66.82;101531.38;5087368;28;20474;-73
2023/02/13 06:01:12;;;;;;;156.05;73.07;;;;;;;0.52;66.87;101536.47;5091444;28;20080;-74
2023/02/13 06:03:39;;;;;;;163.93;80.05;;;;;;;0.62;66.78;101536.84;5087198;28;20028;-73
2023/02/13 06:06:04;;;;;;;167.40;83.28;;;;;;;0.73;66.49;101538.06;5077442;28;20035;-73
2023/02/13 06:08:30;;;;;;;164.98;80.88;;;;;;;0.72;66.35;101527.25;5073254;28;20426;-73
2023/02/13 06:10:55;;;;;;;167.32;81.85;;;;;;;0.84;66.29;101545.66;5088328;28;20024;-74
2023/02/13 06:13:21;;;;;;;132.40;61.45;;;;;;;0.55;66.31;101547.03;5088283;28;20488;-73
2023/02/13 06:15:46;;;;;;;100.30;50.60;;;;;;;0.00;67.74;101550.97;5084845;28;20176;-73
2023/02/13 06:18:12;;;;;;;87.75;46.28;;;;;;;0.39;67.33;101540.94;5087097;28;20024;-72
2023/02/13 06:20:37;;;;;;;82.15;41.75;;;;;;;0.47;67.33;101541.75;5082922;28;20030;-73
2023/02/13 06:23:03;;;;;;;95.78;45.15;;;;;;;0.62;67.49;101547.00;5080786;28;20028;-73
2023/02/13 06:25:29;;;;;;;87.10;39.88;;;;;;;0.57;67.59;101549.56;5082807;28;20640;-74
2023/02/13 06:27:55;;;;;;;72.93;37.38;;;;;;;0.39;68.16;101538.19;5088740;28;20044;-73
2023/02/13 06:30:20;;;;;;;74.65;36.25;;;;;;;0.79;67.62;101542.72;5083743;28;20024;-73
2023/02/13 06:32:47;;;;;;;67.75;35.70;;;;;;;0.82;67.72;101539.50;5086081;28;20088;-74
2023/02/13 06:35:13;;;;;;;117.07;46.67;;;;;;;0.64;67.92;101545.72;5080490;28;20497;-75
2023/02/13 06:37:38;;;;;;;337.58;100.25;;;;;;;0.67;68.35;101545.28;5077150;28;20024;-75
2023/02/13 06:40:06;;;;;;;142.50;57.58;;;;;;;0.96;67.42;101542.19;5081909;28;20023;-74
2023/02/13 06:42:32;;;;;;;75.78;33.55;;;;;;;0.85;67.66;101529.97;5079555;28;20059;-74
2023/02/13 06:44:57;;;;;;;307.00;126.97;;;;;;;0.92;68.41;101547.31;5084338;28;20032;-75
2023/02/13 06:47:22;;;;;;;69.30;36.47;;;;;;;1.05;68.62;101549.16;5089159;28;20056;-71
2023/02/13 06:49:48;;;;;;;65.38;32.72;;;;;;;1.12;68.13;101546.38;5088936;28;20047;-77
2023/02/13 06:52:13;;;;;;;62.28;33.17;;;;;;;1.51;67.54;101555.44;5090447;28;20031;-74
2023/02/13 06:54:39;;;;;;;66.50;32.53;;;;;;;1.50;67.33;101552.88;5085656;28;20122;-74
2023/02/13 06:57:04;;;;;;;75.00;37.38;;;;;;;1.45;67.97;101549.97;5089916;28;20486;-74
2023/02/13 06:59:30;;;;;;;67.45;33.85;;;;;;;1.80;66.99;101558.59;5088738;28;20035;-75
2023/02/13 07:01:55;;;;;;;71.40;34.97;;;;;;;2.15;65.71;101556.41;5090584;28;20028;-74
2023/02/13 07:04:21;;;;;;;70.10;38.00;;;;;;;2.36;64.84;101550.44;5086540;28;20510;-73
2023/02/13 07:06:46;;;;;;;85.82;45.90;;;;;;;2.54;64.56;101551.53;5088660;28;20119;-70
2023/02/13 07:09:12;;;;;;;65.45;34.85;;;;;;;2.41;64.88;101551.66;5089052;28;20032;-73
2023/02/13 07:11:38;;;;;;;55.60;31.33;;;;;;;1.95;65.78;101558.28;5085057;28;20036;-68
2023/02/13 07:14:06;;;;;;;67.30;35.53;;;;;;;1.98;66.29;101548.69;5090165;28;20028;-71
2023/02/13 07:16:31;;;;;;;58.65;32.20;;;;;;;1.95;66.19;101561.03;5090050;28;20126;-72
2023/02/13 07:18:57;;;;;;;61.70;33.58;;;;;;;2.23;65.98;101564.41;5089378;28;20782;-71
2023/02/13 07:21:22;;;;;;;65.45;33.28;;;;;;;2.27;65.22;101548.22;5086692;28;20031;-71
2023/02/13 07:23:47;;;;;;;78.40;40.70;;;;;;;2.24;65.09;101563.31;5099238;28;20038;-72
2023/02/13 07:26:15;;;;;;;104.95;58.65;;;;;;;2.41;64.78;101546.13;5088579;28;20150;-72
2023/02/13 07:28:40;;;;;;;105.53;52.88;;;;;;;2.74;64.02;101555.97;5087192;28;20489;-69
2023/02/13 07:31:06;;;;;;;97.60;46.30;;;;;;;2.93;63.26;101552.13;5088376;28;20134;-71
2023/02/13 07:33:32;;;;;;;70.25;36.90;;;;;;;2.55;64.26;101547.72;5089119;28;20602;-71
2023/02/13 07:35:58;;;;;;;67.80;34.90;;;;;;;2.78;63.55;101547.00;5087718;28;20113;-71
2023/02/13 07:38:23;;;;;;;65.10;35.38;;;;;;;3.01;63.44;101544.56;5086827;28;20052;-73
2023/02/13 07:40:49;;;;;;;74.55;37.40;;;;;;;3.41;62.44;101549.56;5087900;28;20031;-71
2023/02/13 07:43:15;;;;;;;65.05;34.25;;;;;;;3.67;61.22;101541.91;5086734;28;20032;-71
2023/02/13 07:45:40;;;;;;;70.75;37.17;;;;;;;3.58;60.25;101533.13;5088804;28;20111;-75
2023/02/13 07:48:05;;;;;;;75.50;44.20;;;;;;;2.70;63.02;101536.25;5088064;28;20379;-72
2023/02/13 07:50:31;;;;;;;85.60;45.97;;;;;;;2.06;65.75;101540.13;5089324;28;20055;-72
2023/02/13 07:52:59;;;;;;;84.40;45.42;;;;;;;2.52;65.25;101540.72;5089758;28;20100;-75
2023/02/13 07:55:26;;;;;;;89.47;44.15;;;;;;;2.86;65.53;101529.25;5089739;28;20097;-72
2023/02/13 07:57:52;;;;;;;190.27;53.83;;;;;;;3.25;63.96;101533.59;5083916;28;20043;-73
2023/02/13 08:00:18;;;;;;;94.95;47.42;;;;;;;3.49;62.98;101545.59;5082257;28;20028;-71
2023/02/13 08:02:44;;;;;;;102.60;48.65;;;;;;;3.74;62.25;101541.81;5088744;28;20031;-71
2023/02/13 08:05:10;;;;;;;140.95;50.88;;;;;;;3.89;61.19;101530.28;5088162;28;20160;-70
2023/02/13 08:07:36;;;;;;;154.23;52.33;;;;;;;3.95;61.37;101534.84;5087589;28;20036;-72
2023/02/13 08:12:46;;;;;;;105.60;51.67;;;;;;;3.51;62.11;101533.22;5089787;28;20123;-72
2023/02/13 08:15:13;;;;;;;92.55;49.70;;;;;;;3.86;61.83;101533.50;5089346;28;20119;-71
2023/02/13 08:17:39;;;;;;;97.85;48.58;;;;;;;3.40;62.57;101539.56;5089859;28;20024;-69
2023/02/13 08:20:08;;;;;;;86.20;48.28;;;;;;;3.15;63.88;101528.66;5087690;28;20058;-71
2023/02/13 08:22:35;;;;;;;91.03;45.27;;;;;;;3.10;64.12;101521.06;5068713;28;20391;-73
2023/02/13 08:25:01;;;;;;;92.93;48.13;;;;;;;3.14;64.23;101527.81;5079974;28;20036;-74
2023/02/13 08:27:29;;;;;;;92.00;49.35;;;;;;;2.90;64.76;101533.25;5091867;28;20035;-73
2023/02/13 08:29:55;;;;;;;98.00;47.88;;;;;;;3.22;64.80;101521.94;5092435;28;20410;-73
2023/02/13 08:32:21;;;;;;;93.53;48.72;;;;;;;3.16;64.18;101519.28;5091457;28;20504;-69
2023/02/13 08:34:46;;;;;;;111.38;50.33;;;;;;;3.33;64.41;101513.91;5097912;28;20035;-71
2023/02/13 08:37:12;;;;;;;91.65;46.20;;;;;;;3.35;64.27;101515.38;5091697;28;20020;-74
2023/02/13 08:39:37;;;;;;;81.63;44.00;;;;;;;3.22;64.56;101513.63;5085634;28;20021;-73
2023/02/13 08:42:03;;;;;;;95.35;48.22;;;;;;;3.34;64.47;101515.59;5094449;28;20116;-75
2023/02/13 08:44:28;;;;;;;93.20;47.88;;;;;;;3.40;64.78;101500.84;5093564;28;20509;-75
2023/02/13 08:46:54;;;;;;;91.28;47.90;;;;;;;3.53;63.51;101513.59;5095414;28;20387;-73
2023/02/13 08:49:20;;;;;;;91.28;44.80;;;;;;;3.80;62.55;101507.59;5092337;28;20422;-72
2023/02/13 08:51:46;;;;;;;77.70;39.35;;;;;;;4.13;62.56;101505.34;5096997;28;20044;-73
2023/02/13 08:54:11;;;;;;;80.35;41.97;;;;;;;3.96;61.21;101506.06;5085538;28;20478;-71
2023/02/13 08:56:37;;;;;;;76.93;39.67;;;;;;;4.14;61.69;101513.41;5080359;28;20375;-72
2023/02/13 08:59:02;;;;;;;135.75;68.25;;;;;;;4.19;60.03;101521.00;5095016;28;20104;-73
2023/02/13 09:01:28;;;;;;;562.08;274.48;;;;;;;4.48;59.83;101496.16;5091524;28;20031;-72
2023/02/13 09:03:54;;;;;;;390.25;175.75;;;;;;;4.66;59.85;101491.50;5091077;28;20028;-73
2023/02/13 09:06:19;;;;;;;209.68;113.97;;;;;;;4.89;59.11;101483.13;5094335;28;20111;-73
2023/02/13 09:08:45;;;;;;;1999.90;932.85;;;;;;;4.88;58.89;101475.88;5095120;28;20123;-73
2023/02/13 09:11:10;;;;;;;394.88;124.80;;;;;;;4.57;59.32;101480.81;5094223;28;20069;-73
2023/02/13 09:13:36;;;;;;;776.80;363.25;;;;;;;4.92;58.03;101487.34;5095031;28;20038;-74
2023/02/13 09:16:06;;;;;;;141.32;64.35;;;;;;;4.73;58.50;101483.91;5094395;28;20059;-73
2023/02/13 09:18:33;;;;;;;1999.90;843.80;;;;;;;5.22;57.84;101485.38;5093735;28;20020;-74
2023/02/13 09:21:02;;;;;;;386.48;172.30;;;;;;;5.24;56.11;101480.41;5092899;28;20028;-74
2023/02/13 09:23:33;;;;;;;597.38;323.88;;;;;;;5.63;55.96;101483.31;5096404;28;20512;-74
2023/02/13 09:26:00;;;;;;;65.25;37.47;;;;;;;5.24;55.68;101481.25;5094792;28;20458;-75
2023/02/13 09:28:27;;;;;;;74.70;39.30;;;;;;;5.97;54.18;101477.72;5097353;28;20062;-74
2023/02/13 09:30:53;;;;;;;685.72;457.58;;;;;;;6.21;54.71;101468.34;5092384;28;20032;-74
2023/02/13 09:33:18;;;;;;;595.42;393.20;;;;;;;6.62;52.41;101463.34;5096471;28;20505;-74
2023/02/13 09:35:44;;;;;;;1999.90;988.13;;;;;;;6.24;54.47;101459.53;5090664;28;20028;-74
2023/02/13 09:38:09;;;;;;;1059.85;622.92;;;;;;;6.53;52.63;101459.34;5091860;28;20030;-74
2023/02/13 09:40:43;;;;;;;101.97;55.03;;;;;;;6.26;53.34;101458.16;5084134;28;20406;-72
2023/02/13 09:43:30;;;;;;;1347.47;592.78;;;;;;;6.99;52.27;101450.66;5112858;28;20032;-74
2023/02/13 09:46:08;;;;;;;1161.60;619.75;;;;;;;6.98;52.28;101454.56;5093475;28;20063;-74
2023/02/13 09:48:38;;;;;;;125.82;64.03;;;;;;;7.12;50.63;101449.41;5099745;28;20031;-75
2023/02/13 09:51:04;;;;;;;191.38;95.13;;;;;;;6.98;50.42;101437.84;5087851;28;20075;-74
2023/02/13 09:53:32;;;;;;;678.95;406.55;;;;;;;6.80;50.72;101433.50;5089079;28;20465;-74
2023/02/13 09:56:15;;;;;;;554.10;295.35;;;;;;;6.47;51.89;101433.41;5088422;28;20028;-74
2023/02/13 09:58:51;;;;;;;169.85;85.93;;;;;;;7.00;50.38;101428.16;5078542;28;20092;-75
2023/02/13 10:01:27;;;;;;;187.93;102.53;;;;;;;7.23;49.38;101426.16;5093819;28;20031;-74
2023/02/13 10:04:13;;;;;;;59.08;35.40;;;;;;;7.26;49.54;101420.03;5093167;28;20443;-76
2023/02/13 10:06:49;;;;;;;100.72;61.40;;;;;;;7.11;49.24;101408.78;5096053;28;20119;-75
2023/02/13 10:09:38;;;;;;;342.95;159.38;;;;;;;7.57;49.88;101409.16;5092115;28;20034;-76
2023/02/13 10:12:12;;;;;;;127.85;63.40;;;;;;;8.05;48.69;101393.56;5094614;28;20133;-72
2023/02/13 10:14:56;;;;;;;103.93;64.97;;;;;;;7.71;47.85;101390.03;5098970;28;20049;-75
2023/02/13 10:17:33;;;;;;;392.48;273.13;;;;;;;7.66;49.69;101384.44;5099993;28;20032;-74
2023/02/13 10:20:03;;;;;;;79.32;46.83;;;;;;;7.92;46.90;101379.00;5074887;28;20107;-75
2023/02/13 10:22:40;;;;;;;257.30;160.75;;;;;;;7.90;47.08;101372.00;5073861;28;20029;-75
2023/02/13 10:25:30;;;;;;;84.20;45.08;;;;;;;8.36;46.33;101376.97;5100221;27;20032;-75
2023/02/13 10:28:16;;;;;;;;;;;;;;;8.64;44.97;101369.28;5089825;28;20035;-73
2023/02/13 10:30:55;;;;;;;121.82;57.67;;;;;;;8.62;45.55;101363.13;5086269;28;20022;-74
2023/02/13 10:33:39;;;;;;;50.00;28.02;;;;;;;7.51;45.80;101353.69;5088232;28;20040;-75
2023/02/13 10:36:36;;;;;;;42.35;25.83;;;;;;;7.27;45.20;101349.34;5089833;28;20028;-75
2023/02/13 10:39:16;;;;;;;184.85;112.10;;;;;;;7.52;47.15;101342.28;5084771;28;20546;-73
2023/02/13 10:41:58;;;;;;;86.30;52.97;;;;;;;7.73;45.78;101337.69;5090327;28;20100;-75
2023/02/13 10:44:50;;;;;;;81.78;48.67;;;;;;;8.06;44.46;101331.13;5079028;28;20089;-75
2023/02/13 10:47:30;;;;;;;59.97;33.80;;;;;;;8.43;44.14;101324.56;5078332;28;20028;-74
2023/02/13 10:50:02;;;;;;;387.20;199.88;;;;;;;8.40;44.41;101325.13;5076614;28;20047;-73
2023/02/13 10:53:13;;;;;;;58.90;32.80;;;;;;;8.19;45.13;101311.09;5087311;28;20032;-73
2023/02/13 10:55:56;;;;;;;46.35;26.75;;;;;;;8.34;44.08;101318.69;5067848;28;20422;-75
2023/02/13 10:58:24;;;;;;;182.50;100.47;;;;;;;8.27;44.14;101309.75;5083714;28;20108;-71
2023/02/13 11:01:18;;;;;;;119.18;67.93;;;;;;;8.28;44.25;101301.09;5085656;28;20119;-73
2023/02/13 11:03:46;;;;;;;47.05;25.27;;;;;;;7.85;43.80;101297.63;5080539;28;20043;-73
2023/02/13 11:06:16;;;;;;;52.45;28.60;;;;;;;8.59;43.77;101293.97;5083837;28;20038;-72
2023/02/13 11:08:45;;;;;;;50.35;27.17;;;;;;;9.20;42.62;101293.09;5077333;28;20085;-73
2023/02/13 11:11:33;;;;;;;71.75;36.75;;;;;;;8.98;41.72;101290.63;5088650;28;20032;-73
2023/02/13 11:14:24;;;;;;;75.20;36.75;;;;;;;8.42;43.72;101284.69;5086734;28;20024;-72
2023/02/13 11:16:57;;;;;;;60.47;32.13;;;;;;;8.87;42.11;101277.78;5089535;28;20560;-73
2023/02/13 11:19:30;;;;;;;125.57;66.22;;;;;;;9.25;41.24;101278.31;5080305;28;20024;-73
2023/02/13 11:22:01;;;;;;;143.23;69.45;;;;;;;9.29;41.09;101268.25;5078573;28;20466;-73
2023/02/13 11:24:29;;;;;;;69.57;33.42;;;;;;;9.15;40.77;101264.34;5081801;28;20037;-73
2023/02/13 11:27:01;;;;;;;46.95;26.67;;;;;;;8.85;40.71;101262.16;5088017;28;20409;-73
2023/02/13 11:29:30;;;;;;;70.97;34.08;;;;;;;9.25;41.11;101255.97;5089351;28;20410;-72
2023/02/13 11:32:04;;;;;;;124.75;57.83;;;;;;;9.43;40.02;101246.13;5084734;28;20036;-73
2023/02/13 11:34:31;;;;;;;48.75;27.33;;;;;;;9.52;39.55;101233.28;5082896;28;20036;-73
2023/02/13 11:37:12;;;;;;;32.55;18.63;;;;;;;8.94;39.45;101236.50;5086654;28;20027;-73
2023/02/13 11:39:41;;;;;;;216.63;91.40;;;;;;;8.95;40.02;101232.56;5089298;28;20024;-73
2023/02/13 11:42:14;;;;;;;360.35;156.77;;;;;;;8.98;40.57;101229.22;5086964;28;20032;-72
2023/02/13 11:44:41;;;;;;;152.27;62.22;;;;;;;9.23;39.87;101221.91;5089492;28;20038;-73
2023/02/13 11:47:07;;;;;;;128.00;54.38;;;;;;;9.22;38.87;101214.66;5087177;28;20134;-73
2023/02/13 11:49:40;;;;;;;40.63;22.77;;;;;;;9.11;39.03;101214.69;5089176;28;20052;-73
2023/02/13 11:52:22;;;;;;;63.13;32.47;;;;;;;9.40;38.75;101205.66;5088523;28;20027;-73
2023/02/13 11:54:56;;;;;;;50.20;26.38;;;;;;;9.26;39.84;101199.00;5084236;28;20027;-73
2023/02/13 11:57:33;;;;;;;34.97;21.55;;;;;;;9.68;38.96;101194.94;5085290;28;20035;-73
2023/02/13 12:00:00;;;;;;;59.83;28.80;;;;;;;10.13;37.91;101185.72;5088397;28;20102;-73
2023/02/13 12:02:30;;;;;;;69.93;35.25;;;;;;;9.90;37.79;101188.13;5088716;28;20071;-73
2023/02/13 12:05:28;;;;;;;33.10;20.40;;;;;;;10.02;36.75;101181.34;5086577;28;20024;-73
2023/02/13 12:08:00;;;;;;;26.35;15.90;;;;;;;9.24;36.73;101178.91;5076941;28;20555;-72
2023/02/13 12:10:28;;;;;;;23.73;15.52;;;;;;;10.00;36.80;101169.59;5087491;28;20027;-72